createdAt,value
2023-05-12T00:01:29.528Z,15.19
2023-05-12T00:04:20.138Z,15.05
2023-05-12T00:06:59.432Z,15.28
2023-05-12T00:09:50.152Z,15.27
2023-05-12T00:12:30.163Z,15.29
2023-05-12T00:15:21.495Z,15.34
2023-05-12T00:18:00.455Z,15.27
2023-05-12T00:20:51.144Z,15.42
2023-05-12T00:23:30.785Z,15.14
2023-05-12T00:26:23.108Z,14.92
2023-05-12T00:29:02.848Z,15.13
2023-05-12T00:31:55.676Z,15.20
2023-05-12T00:34:38.305Z,15.18
2023-05-12T00:37:32.765Z,15.38
2023-05-12T00:40:12.461Z,15.17
2023-05-12T00:43:04.515Z,15.19
2023-05-12T00:45:44.531Z,15.13
2023-05-12T00:48:36.471Z,15.21
2023-05-12T00:51:16.148Z,15.16
2023-05-12T00:54:07.330Z,15.14
2023-05-12T00:56:58.322Z,14.91
2023-05-12T00:59:49.178Z,14.96
2023-05-12T01:02:40.539Z,14.98
2023-05-12T01:05:35.010Z,14.87
2023-05-12T01:08:26.129Z,14.86
2023-05-12T01:11:08.223Z,15.03
2023-05-12T01:14:00.165Z,15.09
2023-05-12T01:16:54.980Z,14.99
2023-05-12T01:19:57.094Z,14.99
2023-05-12T01:22:48.217Z,15.03
2023-05-12T01:25:40.201Z,14.99
2023-05-12T01:28:19.540Z,14.96
2023-05-12T01:31:10.135Z,14.86
2023-05-12T01:33:49.726Z,15.00
2023-05-12T01:37:00.294Z,15.16
2023-05-12T01:39:51.151Z,14.62
2023-05-12T01:42:42.393Z,14.79
2023-05-12T01:45:33.572Z,14.94
2023-05-12T01:48:24.386Z,15.27
2023-05-12T01:51:09.395Z,14.99
2023-05-12T01:54:00.125Z,14.79
2023-05-12T01:56:42.259Z,14.87
2023-05-12T01:59:31.670Z,15.17
2023-05-12T02:02:01.073Z,14.91
2023-05-12T02:05:00.250Z,14.29
2023-05-12T02:07:51.304Z,13.91
2023-05-12T02:10:42.385Z,13.99
2023-05-12T02:13:22.488Z,14.27
2023-05-12T02:16:15.878Z,14.26
2023-05-12T02:18:55.569Z,14.14
2023-05-12T02:21:36.231Z,14.39
2023-05-12T02:24:16.685Z,14.66
2023-05-12T02:27:05.320Z,14.73
2023-05-12T02:29:57.371Z,14.27
2023-05-12T02:32:28.265Z,14.40
2023-05-12T02:35:19.144Z,14.54
2023-05-12T02:37:58.876Z,14.78
2023-05-12T02:40:40.222Z,14.80
2023-05-12T02:43:31.818Z,14.65
2023-05-12T02:46:23.438Z,14.82
2023-05-12T02:49:14.222Z,14.98
2023-05-12T02:52:00.356Z,14.42
2023-05-12T02:54:53.407Z,14.38
2023-05-12T02:57:22.168Z,14.37
2023-05-12T02:59:51.015Z,14.13
2023-05-12T03:02:45.194Z,14.16
2023-05-12T03:05:40.218Z,14.79
2023-05-12T03:08:19.305Z,14.56
2023-05-12T03:11:13.247Z,14.47
2023-05-12T03:13:53.258Z,14.22
2023-05-12T03:16:56.741Z,14.41
2023-05-12T03:19:25.739Z,14.28
2023-05-12T03:21:55.160Z,14.19
2023-05-12T03:24:54.467Z,14.06
2023-05-12T03:27:59.887Z,14.37
2023-05-12T03:30:42.561Z,14.30
2023-05-12T03:33:38.280Z,14.11
2023-05-12T03:36:32.920Z,14.52
2023-05-12T03:39:25.250Z,14.40
2023-05-12T03:42:14.852Z,14.19
2023-05-12T03:45:09.367Z,14.37
2023-05-12T03:48:00.412Z,14.15
2023-05-12T03:50:42.721Z,14.26
2023-05-12T03:53:37.964Z,14.32
2023-05-12T03:56:17.613Z,13.99
2023-05-12T03:59:00.485Z,13.42
2023-05-12T04:01:52.288Z,13.93
2023-05-12T04:04:47.746Z,14.00
2023-05-12T04:07:30.242Z,13.90
2023-05-12T04:10:30.022Z,13.74
2023-05-12T04:13:27.438Z,13.83
2023-05-12T04:16:09.976Z,14.10
2023-05-12T04:19:02.185Z,13.99
2023-05-12T04:21:46.407Z,13.71
2023-05-12T04:24:20.722Z,13.76
2023-05-12T04:26:49.500Z,13.69
2023-05-12T04:29:46.592Z,13.70
2023-05-12T04:32:40.592Z,13.75
2023-05-12T04:35:49.814Z,13.72
2023-05-12T04:38:39.905Z,14.00
2023-05-12T04:41:33.430Z,13.65
2023-05-12T04:44:22.358Z,13.73
2023-05-12T04:47:36.431Z,13.92
2023-05-12T04:50:22.823Z,13.99
2023-05-12T04:53:25.182Z,14.06
2023-05-12T04:56:09.489Z,13.84
2023-05-12T04:59:04.177Z,14.03
2023-05-12T05:01:56.622Z,13.95
2023-05-12T05:04:40.371Z,14.25
2023-05-12T05:07:27.311Z,14.17
2023-05-12T05:10:10.370Z,14.07
2023-05-12T05:13:02.582Z,14.19
2023-05-12T05:18:37.404Z,13.77
2023-05-12T05:21:05.577Z,13.98
2023-05-12T05:23:42.885Z,13.92
2023-05-12T05:26:12.322Z,13.47
2023-05-12T05:28:42.368Z,13.78
2023-05-12T05:31:24.622Z,13.62
2023-05-12T05:34:00.357Z,13.47
2023-05-12T05:36:31.494Z,13.73
2023-05-12T05:38:59.794Z,13.65
2023-05-12T05:41:32.418Z,13.36
2023-05-12T05:44:05.160Z,14.14
2023-05-12T05:46:33.649Z,13.95
2023-05-12T05:49:01.465Z,13.84
2023-05-12T05:51:33.430Z,13.67
2023-05-12T05:54:25.801Z,13.78
2023-05-12T05:57:33.533Z,13.74
2023-05-12T06:00:09.959Z,14.22
2023-05-12T06:02:44.757Z,13.82
2023-05-12T06:05:18.094Z,14.14
2023-05-12T06:07:46.679Z,13.80
2023-05-12T06:10:16.300Z,13.64
2023-05-12T06:12:43.855Z,13.39
2023-05-12T06:15:13.306Z,14.19
2023-05-12T06:18:00.786Z,13.78
2023-05-12T06:20:32.595Z,13.58
2023-05-12T06:23:26.916Z,13.29
2023-05-12T06:26:13.592Z,13.41
2023-05-12T06:29:08.476Z,13.53
2023-05-12T06:31:48.054Z,13.88
2023-05-12T06:34:34.458Z,14.13
2023-05-12T06:37:16.628Z,13.91
2023-05-12T06:40:15.333Z,13.94
2023-05-12T06:42:54.766Z,13.68
2023-05-12T06:45:51.536Z,13.77
2023-05-12T06:48:36.594Z,14.16
2023-05-12T06:51:20.368Z,14.13
2023-05-12T06:54:08.551Z,14.14
2023-05-12T06:57:30.380Z,14.16
2023-05-12T07:00:15.360Z,14.73
2023-05-12T07:03:04.269Z,14.47
2023-05-12T07:06:02.520Z,14.85
2023-05-12T07:08:44.657Z,15.23
2023-05-12T07:11:27.719Z,14.54
2023-05-12T07:14:19.658Z,14.84
2023-05-12T07:17:04.111Z,14.96
2023-05-12T07:19:56.467Z,14.92
2023-05-12T07:22:38.765Z,14.44
2023-05-12T07:25:28.535Z,14.59
2023-05-12T07:28:12.714Z,14.78
2023-05-12T07:31:06.079Z,14.27
2023-05-12T07:33:47.441Z,14.53
2023-05-12T07:36:35.679Z,14.70
2023-05-12T07:39:19.437Z,14.96
2023-05-12T07:42:17.109Z,14.88
2023-05-12T07:45:08.704Z,14.32
2023-05-12T07:48:06.662Z,14.45
2023-05-12T07:50:49.391Z,14.81
2023-05-12T07:53:31.335Z,14.49
2023-05-12T07:56:03.811Z,15.02
2023-05-12T07:58:47.640Z,15.09
2023-05-12T08:01:33.816Z,14.96
2023-05-12T08:04:22.866Z,15.18
2023-05-12T08:07:06.045Z,14.65
2023-05-12T08:09:47.660Z,14.89
2023-05-12T08:12:15.218Z,14.85
2023-05-12T08:15:01.452Z,15.25
2023-05-12T08:17:57.072Z,14.72
2023-05-12T08:20:37.184Z,14.90
2023-05-12T08:23:19.340Z,14.72
2023-05-12T08:26:13.294Z,15.07
2023-05-12T08:28:56.680Z,15.31
2023-05-12T08:31:39.596Z,14.96
2023-05-12T08:34:37.885Z,15.37
2023-05-12T08:37:24.879Z,15.57
2023-05-12T08:40:11.963Z,15.30
2023-05-12T08:43:15.516Z,15.22
2023-05-12T08:46:07.378Z,15.36
2023-05-12T08:48:56.656Z,15.44
2023-05-12T08:51:39.708Z,15.20
2023-05-12T08:54:22.819Z,15.18
2023-05-12T08:57:09.419Z,15.70
2023-05-12T08:59:49.462Z,15.78
2023-05-12T09:02:53.254Z,15.55
2023-05-12T09:05:27.062Z,15.70
2023-05-12T09:08:20.945Z,15.28
2023-05-12T09:11:06.516Z,15.27
2023-05-12T09:14:02.967Z,15.38
2023-05-12T09:16:54.384Z,15.03
2023-05-12T09:19:41.390Z,15.10
2023-05-12T09:22:19.863Z,14.92
2023-05-12T09:24:48.062Z,14.94
2023-05-12T09:27:25.280Z,14.27
2023-05-12T09:30:03.455Z,14.71
2023-05-12T09:32:56.931Z,14.59
2023-05-12T09:35:53.274Z,14.32
2023-05-12T09:38:33.729Z,14.13
2023-05-12T09:41:53.470Z,14.24
2023-05-12T09:44:30.861Z,14.55
2023-05-12T09:47:15.588Z,14.73
2023-05-12T09:50:08.655Z,14.44
2023-05-12T09:52:42.669Z,14.71
2023-05-12T09:55:35.356Z,14.81
2023-05-12T09:58:24.142Z,14.18
2023-05-12T10:01:23.887Z,13.70
2023-05-12T10:04:11.950Z,13.89
2023-05-12T10:07:11.954Z,13.99
2023-05-12T10:09:52.980Z,14.57
2023-05-12T10:12:41.697Z,14.01
2023-05-12T10:15:14.438Z,14.29
2023-05-12T10:18:13.280Z,14.60
2023-05-12T10:20:43.881Z,14.81
2023-05-12T10:26:35.990Z,13.86
2023-05-12T10:29:16.430Z,14.21
2023-05-12T10:32:05.482Z,14.53
2023-05-12T10:35:12.706Z,14.27
2023-05-12T10:37:40.567Z,14.30
2023-05-12T10:40:51.776Z,14.06
2023-05-12T10:46:37.409Z,14.30
2023-05-12T10:52:11.334Z,14.38
2023-05-12T10:55:02.584Z,14.32
2023-05-12T10:58:03.887Z,14.37
2023-05-12T11:00:48.434Z,14.30
2023-05-12T11:03:38.550Z,13.77
2023-05-12T11:06:31.173Z,14.21
2023-05-12T11:09:15.906Z,14.37
2023-05-12T11:12:18.360Z,14.56
2023-05-12T11:15:00.426Z,14.47
2023-05-12T11:17:47.604Z,14.45
2023-05-12T11:20:31.144Z,14.49
2023-05-12T11:23:12.881Z,14.30
2023-05-12T11:26:22.750Z,13.94
2023-05-12T11:32:00.741Z,14.53
2023-05-12T11:34:39.907Z,14.03
2023-05-12T11:37:45.688Z,14.33
2023-05-12T11:40:27.358Z,14.30
2023-05-12T11:43:22.994Z,14.54
2023-05-12T11:49:28.426Z,14.17
2023-05-12T11:52:14.615Z,14.28
2023-05-12T11:55:23.794Z,14.13
2023-05-12T11:58:26.358Z,14.50
2023-05-12T12:03:59.118Z,14.22
2023-05-12T12:06:47.563Z,13.88
2023-05-12T12:09:16.724Z,13.91
2023-05-12T12:11:51.728Z,13.99
2023-05-12T12:14:46.935Z,14.25
2023-05-12T12:17:31.703Z,14.03
2023-05-12T12:20:18.284Z,14.13
2023-05-12T12:23:00.398Z,14.12
2023-05-12T12:26:00.598Z,14.28
2023-05-12T12:28:52.412Z,14.34
2023-05-12T12:31:44.590Z,14.15
2023-05-12T12:34:26.797Z,14.47
2023-05-12T12:37:24.654Z,14.50
2023-05-12T12:40:10.220Z,14.56
2023-05-12T12:42:56.441Z,14.30
2023-05-12T12:45:40.492Z,13.97
2023-05-12T12:48:22.372Z,14.24
2023-05-12T12:51:21.458Z,14.21
2023-05-12T12:54:17.630Z,14.63
2023-05-12T12:57:23.134Z,14.86
2023-05-12T13:00:05.456Z,14.52
2023-05-12T13:02:44.549Z,14.23
2023-05-12T13:05:24.440Z,14.45
2023-05-12T13:08:19.771Z,14.26
2023-05-12T13:10:57.466Z,14.27
2023-05-12T13:13:48.396Z,14.44
2023-05-12T13:16:43.726Z,14.44
2023-05-12T13:19:22.579Z,14.24
2023-05-12T13:22:27.365Z,14.29
2023-05-12T13:25:35.792Z,14.34
2023-05-12T13:28:18.194Z,14.45
2023-05-12T13:31:04.466Z,14.45
2023-05-12T13:33:41.898Z,14.55
2023-05-12T13:36:35.385Z,14.24
2023-05-12T13:39:17.294Z,14.33
2023-05-12T13:42:15.478Z,14.32
2023-05-12T13:44:50.289Z,14.16
2023-05-12T13:47:21.331Z,14.34
2023-05-12T13:50:00.391Z,14.32
2023-05-12T13:52:30.447Z,14.25
2023-05-12T13:55:21.246Z,14.34
2023-05-12T13:57:52.526Z,14.43
2023-05-12T14:00:30.832Z,14.36
2023-05-12T14:03:26.508Z,14.64
2023-05-12T14:08:48.986Z,14.59
2023-05-12T14:11:23.845Z,14.70
2023-05-12T14:14:16.633Z,14.64
2023-05-12T14:17:12.577Z,14.89
2023-05-12T14:20:13.202Z,14.84
2023-05-12T14:22:48.649Z,14.99
2023-05-12T14:25:33.363Z,14.88
2023-05-12T14:28:18.653Z,14.57
2023-05-12T14:34:04.507Z,15.08
2023-05-12T14:36:56.564Z,15.39
2023-05-12T14:39:45.641Z,15.15
2023-05-12T14:42:51.484Z,14.76
2023-05-12T14:45:43.021Z,14.79
2023-05-12T14:48:33.357Z,14.76
2023-05-12T14:51:23.717Z,14.80
2023-05-12T14:54:24.295Z,14.82
2023-05-12T14:56:55.712Z,14.54
2023-05-12T14:59:51.286Z,14.52
2023-05-12T15:02:40.664Z,14.66
2023-05-12T15:05:32.350Z,14.65
2023-05-12T15:11:18.551Z,14.76
2023-05-12T15:17:01.286Z,14.37
2023-05-12T15:19:50.551Z,14.92
2023-05-12T15:22:45.820Z,14.89
2023-05-12T15:25:46.299Z,14.18
2023-05-12T15:28:39.356Z,14.18
2023-05-12T15:33:53.430Z,14.59
2023-05-12T15:36:35.932Z,14.50
2023-05-12T15:39:31.692Z,14.66
2023-05-12T15:42:26.123Z,14.31
2023-05-12T15:45:15.385Z,14.30
2023-05-12T15:50:45.463Z,14.78
2023-05-12T15:53:28.159Z,14.69
2023-05-12T15:56:31.657Z,14.68
2023-05-12T15:59:14.350Z,14.92
2023-05-12T16:01:59.539Z,14.65
2023-05-12T16:04:53.116Z,14.79
2023-05-12T16:07:42.355Z,14.41
2023-05-12T16:10:27.450Z,14.32
2023-05-12T16:13:23.121Z,14.45
2023-05-12T16:16:06.370Z,14.38
2023-05-12T16:18:59.892Z,14.81
2023-05-12T16:21:50.503Z,14.44
2023-05-12T16:24:36.872Z,14.73
2023-05-12T16:27:21.792Z,14.60
2023-05-12T16:30:13.828Z,14.67
2023-05-12T16:32:55.289Z,14.80
2023-05-12T16:35:54.438Z,14.20
2023-05-12T16:38:34.949Z,14.66
2023-05-12T16:41:17.734Z,14.29
2023-05-12T16:46:55.391Z,14.86
2023-05-12T16:49:48.368Z,14.65
2023-05-12T16:52:36.391Z,14.69
2023-05-12T16:55:36.424Z,14.16
2023-05-12T16:58:32.732Z,14.42
2023-05-12T17:01:34.296Z,14.34
2023-05-12T17:04:25.703Z,14.27
2023-05-12T17:07:24.667Z,14.08
2023-05-12T17:10:07.776Z,14.33
2023-05-12T17:12:51.030Z,14.22
2023-05-12T17:15:39.378Z,14.41
2023-05-12T17:21:24.609Z,14.07
2023-05-12T17:24:16.501Z,14.15
2023-05-12T17:27:01.919Z,14.30
2023-05-12T17:29:51.546Z,14.12
2023-05-12T17:32:33.787Z,14.28
2023-05-12T17:35:16.354Z,14.03
2023-05-12T17:38:02.381Z,14.35
2023-05-12T17:40:53.406Z,14.23
2023-05-12T17:46:33.933Z,14.49
2023-05-12T17:49:34.138Z,14.09
2023-05-12T17:52:42.329Z,13.97
2023-05-12T18:00:56.558Z,14.03
2023-05-12T18:03:45.370Z,14.44
2023-05-12T18:09:24.386Z,14.33
2023-05-12T18:12:07.537Z,14.17
2023-05-12T18:15:05.417Z,13.96
2023-05-12T18:17:45.850Z,13.83
2023-05-12T18:20:40.772Z,13.38
2023-05-12T18:23:24.798Z,13.50
2023-05-12T18:26:12.591Z,13.91
2023-05-12T18:28:57.480Z,14.23
2023-05-12T18:31:53.852Z,13.78
2023-05-12T18:34:40.483Z,13.72
2023-05-12T18:37:26.466Z,13.53
2023-05-12T18:40:09.497Z,13.45
2023-05-12T18:42:53.971Z,13.97
2023-05-12T18:45:49.028Z,13.67
2023-05-12T18:51:30.535Z,13.69
2023-05-12T18:54:15.642Z,13.69
2023-05-12T18:57:07.599Z,13.91
2023-05-12T18:59:51.244Z,13.86
2023-05-12T19:02:42.525Z,13.22
2023-05-12T19:05:26.494Z,13.84
2023-05-12T19:08:22.421Z,14.07
2023-05-12T19:11:21.457Z,13.83
2023-05-12T19:14:14.800Z,13.81
2023-05-12T19:17:13.541Z,14.07
2023-05-12T19:22:43.347Z,13.95
2023-05-12T19:25:36.555Z,13.51
2023-05-12T19:28:31.375Z,13.40
2023-05-12T19:31:14.809Z,13.63
2023-05-12T19:34:09.345Z,14.07
2023-05-12T19:37:11.372Z,13.70
2023-05-12T19:40:06.680Z,14.04
2023-05-12T19:42:51.705Z,14.03
2023-05-12T19:45:38.564Z,13.96
2023-05-12T19:48:32.325Z,14.13
2023-05-12T19:51:21.363Z,14.22
2023-05-12T19:54:11.678Z,14.57
2023-05-12T19:56:57.320Z,14.39
2023-05-12T19:59:43.548Z,14.40
2023-05-12T20:02:34.608Z,14.00
2023-05-12T20:05:33.237Z,13.82
2023-05-12T20:08:15.264Z,14.15
2023-05-12T20:11:00.581Z,14.59
2023-05-12T20:16:26.035Z,14.02
2023-05-12T20:19:09.303Z,14.27
2023-05-12T20:22:02.330Z,14.54
2023-05-12T20:24:47.638Z,14.42
2023-05-12T20:27:43.466Z,14.21
2023-05-12T20:30:27.031Z,14.15
2023-05-12T20:33:22.327Z,14.66
2023-05-12T20:36:10.686Z,14.52
2023-05-12T20:39:05.415Z,14.40
2023-05-12T20:41:52.808Z,14.33
2023-05-12T20:44:47.911Z,14.43
2023-05-12T20:47:27.711Z,14.19
2023-05-12T20:50:19.388Z,14.42
2023-05-12T20:53:06.085Z,14.37
2023-05-12T20:56:05.825Z,14.49
2023-05-12T20:58:46.083Z,14.38
2023-05-12T21:01:36.943Z,14.59
2023-05-12T21:04:32.028Z,14.47
2023-05-12T21:07:18.808Z,14.09
2023-05-12T21:10:07.245Z,14.11
2023-05-12T21:13:00.453Z,13.98
2023-05-12T21:15:47.744Z,14.11
2023-05-12T21:18:41.895Z,14.38
2023-05-12T21:24:58.120Z,14.39
2023-05-12T21:27:40.920Z,14.06
2023-05-12T21:30:38.317Z,14.14
2023-05-12T21:33:24.396Z,14.00
2023-05-12T21:36:08.718Z,13.98
2023-05-12T21:39:02.945Z,14.41
2023-05-12T21:41:42.582Z,14.16
2023-05-12T21:44:35.609Z,14.44
2023-05-12T21:47:18.809Z,14.41
2023-05-12T21:50:12.156Z,14.49
2023-05-12T21:52:55.705Z,14.41
2023-05-12T21:55:48.325Z,14.29
2023-05-12T21:58:28.340Z,14.39
2023-05-12T22:01:19.177Z,14.64
2023-05-12T22:04:08.830Z,14.25
2023-05-12T22:07:00.157Z,14.47
2023-05-12T22:09:39.662Z,14.39
2023-05-12T22:12:35.834Z,14.53
2023-05-12T22:15:15.460Z,14.19
2023-05-12T22:18:08.982Z,14.36
2023-05-12T22:20:48.975Z,14.38
2023-05-12T22:23:42.320Z,14.42
2023-05-12T22:26:21.339Z,14.53
2023-05-12T22:29:13.375Z,13.88
2023-05-12T22:31:55.113Z,14.08
2023-05-12T22:34:46.146Z,14.20
2023-05-12T22:37:26.836Z,14.14
2023-05-12T22:40:21.542Z,13.67
2023-05-12T22:43:01.446Z,14.05
2023-05-12T22:45:52.470Z,13.93
2023-05-12T22:48:36.085Z,13.95
2023-05-12T22:51:23.255Z,14.02
2023-05-12T22:54:03.191Z,14.56
2023-05-12T22:56:59.757Z,14.34
2023-05-12T22:59:39.399Z,14.21
2023-05-12T23:02:30.787Z,14.68
2023-05-12T23:05:10.559Z,14.65
2023-05-12T23:08:03.057Z,14.17
2023-05-12T23:10:42.440Z,14.34
2023-05-12T23:13:37.954Z,14.21
2023-05-12T23:16:17.506Z,13.80
2023-05-12T23:19:09.208Z,14.04
2023-05-12T23:21:48.486Z,14.44
2023-05-12T23:24:39.104Z,14.24
2023-05-12T23:27:21.545Z,14.23
2023-05-12T23:30:12.351Z,13.82
2023-05-12T23:32:52.026Z,13.86
2023-05-12T23:35:44.101Z,14.04
2023-05-12T23:38:23.677Z,14.04
2023-05-12T23:40:52.579Z,14.01
2023-05-12T23:43:31.512Z,13.94
2023-05-12T23:46:22.467Z,13.69
2023-05-12T23:49:01.479Z,13.73
2023-05-12T23:51:52.265Z,13.77
2023-05-12T23:54:31.380Z,13.66
2023-05-12T23:57:22.319Z,13.55
